Terminal Aerodrome Forecast
Issued by NWS

Home | Current Version | Previous Version | Text Only | Print | Product List | Glossary On
Versions: 1 2 3 4 5 6 7 8 9 10 11 12 13 14 15 16 17 18 19 20 21
000
FTAK31 PAJN 302300
TAFAKT
TAF
PAKT 302324Z 3100/3124 14024G40KT 3SM SHRA BR SCT015 OVC025
      WS020/16050KT
     FM310300 14020G30KT 2SM SHRA BR BKN020 OVC040 WS020/16045KT
     FM310500 14011G18KT 4SM -SHRA BR OVC025
     FM310900 14006KT 6SM -SHRA BR BKN025 OVC050
     FM311500 VRB03KT P6SM -SHRA BKN040 OVC080
     FM311800 14006KT P6SM -SHRA BKN050 OVC100
     FM312100 14012KT P6SM -SHRA SCT050 BKN100
      AMD LTD TO CLD VIS AND WIND 3106/3115=

USA.gov is the U.S. government's official web portal to all federal, state and local government web resources and services.